Time;durP1;ratioP1;P1;durP2;ratioP2;P2;SDS_P1;SDS_P2;PMS_P1;PMS_P2;Temp;Humidity;BMP_temperature;BMP_pressure;BME280_temperature;BME280_humidity;BME280_pressure;Samples;Min_cycle;Max_cycle;Signal;HPM_P1;HPM_P2
2024/01/23 00:01:33;;;;;;;4.67;1.10;;;;;;;;;;5087113;28;20202;-58
2024/01/23 00:04:01;;;;;;;2.50;1.00;;;;;;;;;;5087698;28;20209;-57
2024/01/23 00:06:28;;;;;;;9.23;1.33;;;;;;;;;;5091359;28;20202;-59
2024/01/23 00:08:57;;;;;;;6.50;1.03;;;;;;;;;;5090781;28;20210;-59
2024/01/23 00:11:24;;;;;;;4.90;1.13;;;;;;;;;;5083912;28;20763;-59
2024/01/23 00:13:51;;;;;;;4.33;1.00;;;;;;;;;;5079177;28;20233;-59
2024/01/23 00:16:19;;;;;;;3.20;1.07;;;;;;;;;;5089784;28;20194;-59
2024/01/23 00:18:46;;;;;;;3.57;1.00;;;;;;;;;;5090934;28;20845;-59
2024/01/23 00:21:15;;;;;;;7.47;1.10;;;;;;;;;;5090387;28;20403;-59
2024/01/23 00:23:42;;;;;;;4.50;1.10;;;;;;;;;;5090424;28;20205;-59
2024/01/23 00:26:09;;;;;;;2.80;0.97;;;;;;;;;;5087693;28;20222;-59
2024/01/23 00:28:36;;;;;;;6.43;0.90;;;;;;;;;;5085751;28;20625;-59
2024/01/23 00:31:03;;;;;;;3.20;0.83;;;;;;;;;;5089669;28;20214;-60
2024/01/23 00:33:30;;;;;;;3.17;1.07;;;;;;;;;;5089234;28;20213;-59
2024/01/23 00:35:57;;;;;;;5.03;1.23;;;;;;;;;;5086495;28;20210;-60
2024/01/23 00:38:26;;;;;;;6.53;1.00;;;;;;;;;;5090347;28;20711;-59
2024/01/23 00:41:07;;;;;;;7.20;1.00;;;;;;;;;;5087663;28;20218;-60
2024/01/23 00:43:34;;;;;;;3.23;1.47;;;;;;;;;;5080383;28;20264;-59
2024/01/23 00:46:01;;;;;;;5.40;1.30;;;;;;;;;;5088304;28;20753;-59
2024/01/23 00:48:28;;;;;;;3.03;0.93;;;;;;;;;;5089296;28;20206;-59
2024/01/23 00:50:55;;;;;;;4.80;0.93;;;;;;;;;;5090379;28;20214;-59
2024/01/23 00:53:22;;;;;;;5.63;1.20;;;;;;;;;;5081447;28;20938;-59
2024/01/23 00:55:51;;;;;;;5.70;1.07;;;;;;;;;;5088298;28;20199;-59
2024/01/23 00:58:18;;;;;;;3.77;1.27;;;;;;;;;;5089797;28;20218;-59
2024/01/23 01:00:45;;;;;;;5.57;1.00;;;;;;;;;;5088340;28;20213;-59
2024/01/23 01:03:12;;;;;;;5.70;0.83;;;;;;;;;;5085018;28;20203;-59
2024/01/23 01:05:39;;;;;;;2.30;0.80;;;;;;;;;;5071420;28;20230;-59
2024/01/23 01:08:06;;;;;;;6.30;1.20;;;;;;;;;;5087608;28;20215;-59
2024/01/23 01:10:33;;;;;;;6.97;0.70;;;;;;;;;;5089019;28;20230;-59
2024/01/23 01:13:02;;;;;;;4.57;0.90;;;;;;;;;;5077041;28;20206;-59
2024/01/23 01:15:29;;;;;;;4.73;1.00;;;;;;;;;;5080912;28;20664;-59
2024/01/23 01:17:56;;;;;;;2.77;0.80;;;;;;;;;;5088427;28;20575;-59
2024/01/23 01:20:23;;;;;;;3.93;0.80;;;;;;;;;;5088601;28;20209;-60
2024/01/23 01:22:50;;;;;;;10.57;1.00;;;;;;;;;;5090155;28;20211;-59
2024/01/23 01:25:17;;;;;;;2.43;0.70;;;;;;;;;;5088806;28;20324;-59
2024/01/23 01:27:44;;;;;;;6.60;1.00;;;;;;;;;;5089299;28;20209;-59
2024/01/23 01:30:13;;;;;;;5.70;1.37;;;;;;;;;;5089145;28;20202;-59
2024/01/23 01:32:40;;;;;;;4.90;1.03;;;;;;;;;;5088882;28;20213;-59
2024/01/23 01:35:08;;;;;;;5.17;1.10;;;;;;;;;;5081574;28;20207;-59
2024/01/23 01:37:35;;;;;;;3.20;0.63;;;;;;;;;;5088625;28;20609;-59
2024/01/23 01:40:02;;;;;;;0.60;0.60;;;;;;;;;;5087268;28;20217;-59
2024/01/23 01:42:29;;;;;;;6.50;1.30;;;;;;;;;;5088629;28;20217;-60
2024/01/23 01:44:56;;;;;;;0.83;0.70;;;;;;;;;;5087719;28;20218;-60
2024/01/23 01:47:24;;;;;;;10.63;0.97;;;;;;;;;;5087654;28;20285;-59
2024/01/23 01:49:52;;;;;;;3.40;1.20;;;;;;;;;;5087620;28;20206;-59
2024/01/23 01:52:20;;;;;;;4.73;0.83;;;;;;;;;;5086605;28;20215;-57
2024/01/23 01:54:47;;;;;;;7.23;1.10;;;;;;;;;;5088606;28;20283;-58
2024/01/23 01:57:15;;;;;;;6.93;1.20;;;;;;;;;;5088647;28;20371;-57
2024/01/23 01:59:42;;;;;;;4.57;0.80;;;;;;;;;;5088090;28;20202;-57
2024/01/23 02:02:11;;;;;;;4.73;1.00;;;;;;;;;;5087775;28;20671;-57
2024/01/23 02:04:40;;;;;;;5.67;1.00;;;;;;;;;;5086678;28;20198;-58
2024/01/23 02:07:07;;;;;;;4.53;0.83;;;;;;;;;;5088201;28;20199;-59
2024/01/23 02:09:34;;;;;;;2.83;0.80;;;;;;;;;;5084150;28;20234;-57
2024/01/23 02:12:05;;;;;;;3.10;1.03;;;;;;;;;;5085880;28;20206;-57
2024/01/23 02:14:32;;;;;;;7.17;1.33;;;;;;;;;;5087706;28;20263;-57
2024/01/23 02:16:59;;;;;;;8.07;1.13;;;;;;;;;;5087880;28;20202;-57
2024/01/23 02:19:27;;;;;;;2.70;0.63;;;;;;;;;;5086920;28;20644;-59
2024/01/23 02:21:56;;;;;;;5.23;0.73;;;;;;;;;;5087733;28;21012;-58
2024/01/23 02:24:24;;;;;;;5.97;1.20;;;;;;;;;;5087115;28;20210;-57
2024/01/23 02:26:51;;;;;;;2.80;0.97;;;;;;;;;;5087610;28;20232;-57
2024/01/23 02:29:18;;;;;;;4.97;0.90;;;;;;;;;;5087840;28;20209;-57
2024/01/23 02:31:45;;;;;;;6.00;0.80;;;;;;;;;;5087705;28;20203;-57
2024/01/23 02:34:12;;;;;;;3.87;0.77;;;;;;;;;;5084773;28;20202;-58
2024/01/23 02:36:41;;;;;;;2.13;0.60;;;;;;;;;;5080864;28;20206;-57
2024/01/23 02:39:08;;;;;;;2.80;0.77;;;;;;;;;;5087748;28;20276;-57
2024/01/23 02:41:37;;;;;;;6.13;0.90;;;;;;;;;;5086892;28;20217;-57
2024/01/23 02:44:04;;;;;;;2.80;0.73;;;;;;;;;;5086742;28;20207;-57
2024/01/23 02:46:31;;;;;;;4.40;0.70;;;;;;;;;;5087459;28;20218;-57
2024/01/23 02:48:58;;;;;;;3.70;1.20;;;;;;;;;;5087368;28;20203;-57
2024/01/23 02:51:25;;;;;;;3.43;0.73;;;;;;;;;;5086548;28;20217;-57
2024/01/23 02:53:52;;;;;;;6.40;1.00;;;;;;;;;;5087272;28;20687;-57
2024/01/23 02:56:19;;;;;;;4.23;1.00;;;;;;;;;;5082490;28;20205;-57
2024/01/23 02:58:47;;;;;;;8.03;1.47;;;;;;;;;;5085799;28;20223;-59
2024/01/23 03:01:14;;;;;;;5.83;1.20;;;;;;;;;;5087476;28;20194;-59
2024/01/23 03:03:41;;;;;;;8.70;1.00;;;;;;;;;;5085852;28;20318;-59
2024/01/23 03:06:08;;;;;;;4.50;1.10;;;;;;;;;;5087114;28;20222;-59
2024/01/23 03:08:35;;;;;;;3.53;0.50;;;;;;;;;;5086109;28;20206;-57
2024/01/23 03:11:03;;;;;;;3.57;0.70;;;;;;;;;;5087071;28;20242;-57
2024/01/23 03:13:30;;;;;;;7.23;0.80;;;;;;;;;;5086555;28;20576;-59
2024/01/23 03:15:58;;;;;;;1.67;0.60;;;;;;;;;;5087098;28;20203;-58
2024/01/23 03:18:25;;;;;;;1.20;0.60;;;;;;;;;;5087164;28;20390;-58
2024/01/23 03:20:52;;;;;;;2.30;0.50;;;;;;;;;;5086733;28;20989;-58
2024/01/23 03:23:19;;;;;;;4.47;0.53;;;;;;;;;;5076994;28;20260;-58
2024/01/23 03:25:46;;;;;;;2.47;0.57;;;;;;;;;;5086311;28;20747;-58
2024/01/23 03:28:13;;;;;;;1.33;0.40;;;;;;;;;;5086787;28;20356;-58
2024/01/23 03:30:40;;;;;;;2.53;0.60;;;;;;;;;;5086341;28;20194;-58
2024/01/23 03:33:09;;;;;;;5.13;0.77;;;;;;;;;;5087258;28;20210;-58
2024/01/23 03:35:36;;;;;;;2.87;0.50;;;;;;;;;;5071545;28;20233;-58
2024/01/23 03:38:04;;;;;;;5.23;0.90;;;;;;;;;;5073327;28;20210;-58
2024/01/23 03:40:31;;;;;;;1.37;0.50;;;;;;;;;;5083228;28;20203;-58
2024/01/23 03:42:58;;;;;;;2.77;1.10;;;;;;;;;;5091117;28;20271;-58
2024/01/23 03:45:25;;;;;;;1.27;0.83;;;;;;;;;;5090571;28;20221;-58
2024/01/23 03:47:52;;;;;;;4.97;0.83;;;;;;;;;;5090529;28;20213;-58
2024/01/23 03:50:21;;;;;;;1.93;0.47;;;;;;;;;;5080801;28;21568;-58
2024/01/23 03:52:48;;;;;;;1.13;0.40;;;;;;;;;;5091089;28;20210;-59
2024/01/23 03:55:15;;;;;;;2.10;0.23;;;;;;;;;;5088226;28;20233;-59
2024/01/23 03:57:44;;;;;;;3.93;0.97;;;;;;;;;;5090065;28;20283;-58
2024/01/23 04:00:12;;;;;;;5.40;0.50;;;;;;;;;;5090815;28;20233;-58
2024/01/23 04:02:39;;;;;;;2.47;0.30;;;;;;;;;;5089490;28;20320;-58
2024/01/23 04:05:07;;;;;;;0.93;0.40;;;;;;;;;;5090096;28;20202;-58
2024/01/23 04:07:36;;;;;;;1.00;0.50;;;;;;;;;;5090219;28;20295;-58
2024/01/23 04:10:04;;;;;;;4.47;0.57;;;;;;;;;;5089846;28;20246;-61
2024/01/23 04:12:31;;;;;;;1.63;0.53;;;;;;;;;;5090592;28;20267;-59
2024/01/23 04:14:58;;;;;;;2.47;0.50;;;;;;;;;;5090499;28;20287;-58
2024/01/23 04:17:25;;;;;;;7.47;0.50;;;;;;;;;;5090257;28;20565;-59
2024/01/23 04:19:52;;;;;;;1.80;0.63;;;;;;;;;;5090751;28;20240;-58
2024/01/23 04:22:20;;;;;;;6.40;1.50;;;;;;;;;;5089826;28;20202;-59
2024/01/23 04:24:49;;;;;;;4.37;1.70;;;;;;;;;;5082011;28;20206;-58
2024/01/23 04:27:16;;;;;;;3.00;1.80;;;;;;;;;;5090152;28;20225;-58
2024/01/23 04:29:43;;;;;;;1.83;1.33;;;;;;;;;;5089853;28;20210;-58
2024/01/23 04:32:10;;;;;;;3.90;1.00;;;;;;;;;;5090073;28;20696;-58
2024/01/23 04:34:37;;;;;;;3.43;1.10;;;;;;;;;;5089756;28;20206;-58
2024/01/23 04:37:04;;;;;;;7.70;1.33;;;;;;;;;;5089718;28;20203;-58
2024/01/23 04:39:31;;;;;;;3.87;1.27;;;;;;;;;;5088818;28;20247;-58
2024/01/23 04:42:00;;;;;;;3.37;2.27;;;;;;;;;;5090275;28;20210;-58
2024/01/23 04:44:27;;;;;;;5.10;2.33;;;;;;;;;;5088755;28;20207;-58
2024/01/23 04:46:53;;;;;;;5.50;2.10;;;;;;;;;;5089808;28;20226;-58
2024/01/23 04:49:20;;;;;;;5.47;1.50;;;;;;;;;;5090179;28;20213;-58
2024/01/23 04:51:47;;;;;;;1.70;1.17;;;;;;;;;;5087668;28;20201;-58
2024/01/23 04:54:14;;;;;;;2.33;1.03;;;;;;;;;;5088263;28;20832;-58
2024/01/23 04:56:41;;;;;;;3.07;0.90;;;;;;;;;;5089349;28;20202;-59
2024/01/23 04:59:09;;;;;;;2.20;0.80;;;;;;;;;;5089712;28;20279;-58
2024/01/23 05:01:36;;;;;;;4.47;0.73;;;;;;;;;;5084333;28;20219;-58
2024/01/23 05:04:04;;;;;;;2.23;0.63;;;;;;;;;;5087702;28;20616;-58
2024/01/23 05:06:31;;;;;;;2.00;0.90;;;;;;;;;;5088835;28;20225;-59
2024/01/23 05:08:58;;;;;;;2.27;0.80;;;;;;;;;;5089558;28;20226;-58
2024/01/23 05:11:25;;;;;;;2.57;0.80;;;;;;;;;;5088739;28;20296;-58
2024/01/23 05:13:52;;;;;;;9.57;1.40;;;;;;;;;;5089407;28;20329;-59
2024/01/23 05:16:20;;;;;;;8.00;1.87;;;;;;;;;;5089498;28;20198;-59
2024/01/23 05:18:48;;;;;;;1.73;1.20;;;;;;;;;;5088318;28;20233;-59
2024/01/23 05:21:15;;;;;;;3.43;1.33;;;;;;;;;;5089749;28;20294;-58
2024/01/23 05:23:42;;;;;;;7.70;1.50;;;;;;;;;;5089445;28;20297;-58
2024/01/23 05:26:09;;;;;;;8.07;1.80;;;;;;;;;;5077404;28;20222;-58
2024/01/23 05:28:36;;;;;;;3.97;0.83;;;;;;;;;;5083654;28;20230;-59
2024/01/23 05:31:03;;;;;;;2.57;1.07;;;;;;;;;;5089143;28;20289;-58
2024/01/23 05:33:31;;;;;;;2.37;1.00;;;;;;;;;;5088863;28;20217;-58
2024/01/23 05:35:58;;;;;;;5.80;0.80;;;;;;;;;;5089553;28;20309;-58
2024/01/23 05:38:26;;;;;;;5.73;1.17;;;;;;;;;;5089243;28;20214;-59
2024/01/23 05:40:53;;;;;;;4.97;1.50;;;;;;;;;;5086687;28;20225;-59
2024/01/23 05:43:20;;;;;;;4.27;0.93;;;;;;;;;;5073503;28;20214;-59
2024/01/23 05:45:47;;;;;;;10.17;1.17;;;;;;;;;;5076595;28;20615;-58
2024/01/23 05:48:14;;;;;;;4.73;1.07;;;;;;;;;;5088421;28;20202;-58
2024/01/23 05:50:42;;;;;;;6.23;0.83;;;;;;;;;;5088735;28;20267;-59
2024/01/23 05:53:09;;;;;;;4.50;1.20;;;;;;;;;;5088816;28;20224;-59
2024/01/23 05:55:36;;;;;;;3.70;0.90;;;;;;;;;;5079542;28;20218;-58
2024/01/23 05:58:03;;;;;;;10.30;1.47;;;;;;;;;;5084842;28;20704;-58
2024/01/23 06:00:30;;;;;;;1.40;0.80;;;;;;;;;;5088560;28;20198;-59
2024/01/23 06:02:57;;;;;;;4.50;0.97;;;;;;;;;;5084119;28;20202;-58
2024/01/23 06:05:24;;;;;;;4.50;0.87;;;;;;;;;;5088434;28;20210;-59
2024/01/23 06:07:52;;;;;;;4.53;0.60;;;;;;;;;;5089087;28;20282;-59
2024/01/23 06:10:20;;;;;;;2.33;0.90;;;;;;;;;;5087548;28;20234;-59
2024/01/23 06:12:47;;;;;;;5.07;0.80;;;;;;;;;;5088050;28;20204;-59
2024/01/23 06:15:14;;;;;;;4.63;0.70;;;;;;;;;;5088565;28;20284;-59
2024/01/23 06:17:41;;;;;;;5.47;0.90;;;;;;;;;;5087751;28;20206;-59
2024/01/23 06:20:12;;;;;;;3.37;0.70;;;;;;;;;;5086560;28;20279;-59
2024/01/23 06:22:39;;;;;;;6.00;1.10;;;;;;;;;;5087795;28;20915;-59
2024/01/23 06:25:09;;;;;;;3.30;0.80;;;;;;;;;;5087292;28;20217;-59
2024/01/23 06:27:36;;;;;;;4.37;0.73;;;;;;;;;;5081785;28;20218;-60
2024/01/23 06:30:04;;;;;;;4.70;0.90;;;;;;;;;;5084385;28;20289;-59
2024/01/23 06:32:33;;;;;;;8.07;0.90;;;;;;;;;;5087298;28;20212;-59
2024/01/23 06:35:00;;;;;;;6.67;1.53;;;;;;;;;;5086097;28;20208;-59
2024/01/23 06:37:27;;;;;;;1.17;0.90;;;;;;;;;;5075258;28;20256;-58
2024/01/23 06:39:54;;;;;;;3.87;1.20;;;;;;;;;;5081268;28;20562;-58
2024/01/23 06:42:22;;;;;;;5.57;1.50;;;;;;;;;;5087505;28;20214;-58
2024/01/23 06:44:49;;;;;;;5.50;1.30;;;;;;;;;;5077532;28;20298;-58
2024/01/23 06:47:16;;;;;;;8.63;1.60;;;;;;;;;;5080758;28;20279;-59
2024/01/23 06:49:44;;;;;;;5.13;0.93;;;;;;;;;;5087602;28;20212;-59
2024/01/23 06:52:11;;;;;;;4.73;1.10;;;;;;;;;;5076205;28;20209;-59
2024/01/23 06:54:38;;;;;;;1.67;0.90;;;;;;;;;;5086991;28;20301;-59
2024/01/23 06:57:06;;;;;;;3.90;1.10;;;;;;;;;;5087721;28;20816;-59
2024/01/23 06:59:34;;;;;;;6.67;1.37;;;;;;;;;;5087710;28;20324;-59
2024/01/23 07:02:01;;;;;;;11.93;2.17;;;;;;;;;;5087618;28;20212;-59
2024/01/23 07:04:28;;;;;;;6.47;1.17;;;;;;;;;;5084956;28;20211;-59
2024/01/23 07:06:55;;;;;;;2.43;1.23;;;;;;;;;;5087343;28;20229;-59
2024/01/23 07:09:22;;;;;;;2.93;1.40;;;;;;;;;;5087047;28;20747;-59
2024/01/23 07:11:53;;;;;;;3.33;1.10;;;;;;;;;;5087749;28;20198;-58
2024/01/23 07:14:20;;;;;;;10.07;1.83;;;;;;;;;;5086961;28;20733;-59
2024/01/23 07:16:48;;;;;;;5.20;1.30;;;;;;;;;;5086854;28;20538;-60
2024/01/23 07:19:15;;;;;;;3.30;1.00;;;;;;;;;;5087252;28;20205;-59
2024/01/23 07:21:42;;;;;;;2.63;0.97;;;;;;;;;;5087456;28;20301;-59
2024/01/23 07:24:09;;;;;;;4.97;1.80;;;;;;;;;;5087218;28;20576;-58
2024/01/23 07:26:36;;;;;;;7.90;1.83;;;;;;;;;;5087166;28;20702;-59
2024/01/23 07:29:03;;;;;;;4.50;0.97;;;;;;;;;;5086570;28;20260;-58
2024/01/23 07:31:31;;;;;;;5.23;1.47;;;;;;;;;;5087291;28;20198;-59
2024/01/23 07:33:59;;;;;;;6.33;1.63;;;;;;;;;;5087094;28;20210;-57
2024/01/23 07:36:27;;;;;;;4.77;1.40;;;;;;;;;;5081429;28;20207;-58
2024/01/23 07:38:54;;;;;;;3.23;1.53;;;;;;;;;;5071154;28;20597;-58
2024/01/23 07:41:22;;;;;;;5.07;1.40;;;;;;;;;;5087216;28;20217;-59
2024/01/23 07:43:49;;;;;;;5.80;1.63;;;;;;;;;;5087479;28;20233;-59
2024/01/23 07:46:17;;;;;;;10.80;1.60;;;;;;;;;;5086542;28;20206;-58
2024/01/23 07:48:44;;;;;;;2.50;0.93;;;;;;;;;;5086749;28;20700;-59
2024/01/23 07:51:13;;;;;;;5.10;1.33;;;;;;;;;;5083593;28;20210;-60
2024/01/23 07:53:40;;;;;;;8.07;1.43;;;;;;;;;;5086082;28;20292;-60
2024/01/23 07:56:07;;;;;;;4.43;1.47;;;;;;;;;;5089374;28;20194;-57
2024/01/23 07:58:35;;;;;;;8.07;1.33;;;;;;;;;;5096537;28;20279;-60
2024/01/23 08:01:03;;;;;;;3.80;1.53;;;;;;;;;;5087128;28;20206;-60
2024/01/23 08:03:30;;;;;;;8.53;1.87;;;;;;;;;;5086411;28;20206;-60
2024/01/23 08:05:57;;;;;;;4.83;1.20;;;;;;;;;;5069059;28;20214;-58
2024/01/23 08:08:28;;;;;;;6.43;1.63;;;;;;;;;;5066837;28;20255;-58
2024/01/23 08:10:55;;;;;;;3.87;1.20;;;;;;;;;;5066914;28;20234;-58
2024/01/23 08:13:22;;;;;;;6.50;1.23;;;;;;;;;;5066772;28;20272;-58
2024/01/23 08:15:49;;;;;;;5.80;1.20;;;;;;;;;;5085784;28;20207;-58
2024/01/23 08:18:16;;;;;;;4.27;1.40;;;;;;;;;;5087274;28;20264;-59
2024/01/23 08:20:43;;;;;;;11.43;2.27;;;;;;;;;;5087165;28;20264;-59
2024/01/23 08:23:10;;;;;;;4.63;1.47;;;;;;;;;;5086589;28;20221;-58
2024/01/23 08:25:38;;;;;;;6.00;2.17;;;;;;;;;;5088913;28;20214;-59
2024/01/23 08:28:05;;;;;;;2.13;0.90;;;;;;;;;;5084171;28;20222;-58
2024/01/23 08:30:32;;;;;;;7.07;1.10;;;;;;;;;;5079722;28;20607;-63
2024/01/23 08:32:59;;;;;;;4.90;1.27;;;;;;;;;;5084328;28;20948;-61
2024/01/23 08:35:27;;;;;;;5.50;1.23;;;;;;;;;;5090735;28;20213;-60
2024/01/23 08:37:54;;;;;;;8.63;1.57;;;;;;;;;;5070724;28;20206;-59
2024/01/23 08:40:21;;;;;;;5.57;1.30;;;;;;;;;;5070360;28;20215;-59
2024/01/23 08:42:49;;;;;;;4.60;1.10;;;;;;;;;;5083979;28;20206;-58
2024/01/23 08:45:16;;;;;;;6.13;1.37;;;;;;;;;;5089031;28;20293;-59
2024/01/23 08:47:43;;;;;;;7.37;1.03;;;;;;;;;;5070299;28;20284;-59
2024/01/23 08:50:11;;;;;;;8.93;1.53;;;;;;;;;;5080883;28;20215;-58
2024/01/23 08:52:40;;;;;;;7.70;2.00;;;;;;;;;;5074651;28;20211;-58
2024/01/23 08:55:07;;;;;;;10.47;1.17;;;;;;;;;;5087744;28;20202;-59
2024/01/23 08:57:34;;;;;;;4.93;0.90;;;;;;;;;;5084658;28;20222;-57
2024/01/23 09:00:04;;;;;;;8.23;1.47;;;;;;;;;;5069325;28;20226;-59
2024/01/23 09:02:31;;;;;;;9.30;1.17;;;;;;;;;;5085933;28;20583;-59
2024/01/23 09:04:58;;;;;;;3.73;1.00;;;;;;;;;;5089229;28;20218;-59
2024/01/23 09:07:25;;;;;;;10.53;1.20;;;;;;;;;;5083841;28;20230;-58
2024/01/23 09:09:52;;;;;;;5.27;1.53;;;;;;;;;;5070556;28;20253;-59
2024/01/23 09:12:20;;;;;;;4.47;1.10;;;;;;;;;;5069598;28;20206;-63
2024/01/23 09:14:47;;;;;;;5.30;1.60;;;;;;;;;;5085973;28;20924;-59
2024/01/23 09:17:16;;;;;;;5.03;1.30;;;;;;;;;;5087586;28;20205;-58
2024/01/23 09:19:43;;;;;;;8.37;1.30;;;;;;;;;;5081988;28;20207;-59
2024/01/23 09:22:10;;;;;;;3.90;1.40;;;;;;;;;;5080021;28;20209;-58
2024/01/23 09:24:37;;;;;;;8.10;1.50;;;;;;;;;;5088543;28;20672;-59
2024/01/23 09:27:04;;;;;;;5.20;1.43;;;;;;;;;;5089173;28;20432;-59
2024/01/23 09:29:32;;;;;;;3.27;1.57;;;;;;;;;;5087311;28;20559;-59
2024/01/23 09:31:59;;;;;;;2.87;1.13;;;;;;;;;;5068490;28;20655;-58
2024/01/23 09:34:27;;;;;;;6.17;2.07;;;;;;;;;;5069035;28;20249;-59
2024/01/23 09:36:54;;;;;;;4.90;1.53;;;;;;;;;;5068403;28;20222;-59
2024/01/23 09:39:22;;;;;;;3.90;1.10;;;;;;;;;;5068972;28;20214;-59
2024/01/23 09:41:54;;;;;;;6.17;1.40;;;;;;;;;;5069050;28;20609;-61
2024/01/23 09:44:21;;;;;;;6.80;1.53;;;;;;;;;;5068794;28;20211;-59
2024/01/23 09:46:51;;;;;;;5.23;1.10;;;;;;;;;;5068763;28;20219;-63
2024/01/23 09:49:18;;;;;;;2.77;0.93;;;;;;;;;;5069357;28;20865;-58
2024/01/23 09:51:47;;;;;;;7.13;1.73;;;;;;;;;;5068805;28;20421;-59
2024/01/23 09:54:14;;;;;;;4.30;1.33;;;;;;;;;;5081556;28;20207;-59
2024/01/23 09:56:42;;;;;;;8.97;2.80;;;;;;;;;;5068570;28;20206;-59
2024/01/23 09:59:09;;;;;;;12.57;2.07;;;;;;;;;;5068016;28;20223;-61
2024/01/23 10:01:36;;;;;;;6.17;1.40;;;;;;;;;;5067958;28;20210;-61
2024/01/23 10:04:04;;;;;;;4.57;1.63;;;;;;;;;;5068301;28;20211;-60
2024/01/23 10:06:31;;;;;;;8.27;1.50;;;;;;;;;;5076189;28;20202;-61
2024/01/23 10:09:00;;;;;;;8.17;1.40;;;;;;;;;;5087752;28;20735;-59
2024/01/23 10:11:28;;;;;;;5.07;1.20;;;;;;;;;;5088201;28;20651;-62
2024/01/23 10:13:58;;;;;;;5.80;1.43;;;;;;;;;;5087942;28;20210;-59
2024/01/23 10:16:26;;;;;;;5.17;1.57;;;;;;;;;;5088447;28;20206;-60
2024/01/23 10:18:53;;;;;;;9.47;2.80;;;;;;;;;;5088436;28;20241;-61
2024/01/23 10:21:21;;;;;;;3.97;1.53;;;;;;;;;;5088067;28;20629;-60
2024/01/23 10:23:49;;;;;;;9.23;3.47;;;;;;;;;;5088422;28;20259;-59
2024/01/23 10:26:18;;;;;;;10.20;3.73;;;;;;;;;;5088650;28;20302;-59
2024/01/23 10:28:45;;;;;;;9.07;3.83;;;;;;;;;;5088445;28;20233;-59
2024/01/23 10:31:12;;;;;;;17.47;6.63;;;;;;;;;;5088602;28;20210;-59
2024/01/23 10:33:39;;;;;;;8.00;3.27;;;;;;;;;;5088250;28;20201;-59
2024/01/23 10:36:08;;;;;;;10.00;2.80;;;;;;;;;;5088155;28;20301;-59
2024/01/23 10:38:36;;;;;;;14.07;6.13;;;;;;;;;;5088043;28;20434;-59
2024/01/23 10:41:04;;;;;;;25.37;13.17;;;;;;;;;;5087800;28;20263;-59
2024/01/23 10:43:33;;;;;;;17.57;8.27;;;;;;;;;;5084697;28;20293;-59
2024/01/23 10:46:02;;;;;;;16.87;6.90;;;;;;;;;;5087940;28;20672;-59
2024/01/23 10:48:30;;;;;;;10.00;4.53;;;;;;;;;;5087069;28;20226;-59
2024/01/23 10:50:59;;;;;;;14.30;4.30;;;;;;;;;;5087854;28;20571;-59
2024/01/23 10:53:32;;;;;;;13.07;3.60;;;;;;;;;;5068045;28;20217;-59
2024/01/23 10:56:00;;;;;;;15.30;4.40;;;;;;;;;;5067522;28;20218;-59
2024/01/23 10:58:30;;;;;;;14.30;5.40;;;;;;;;;;5067560;28;20219;-59
2024/01/23 11:01:00;;;;;;;15.90;5.00;;;;;;;;;;5067456;28;20661;-59
2024/01/23 11:03:28;;;;;;;10.27;3.70;;;;;;;;;;5077365;28;20506;-60
2024/01/23 11:05:57;;;;;;;16.47;5.83;;;;;;;;;;5077476;28;20221;-59
2024/01/23 11:08:27;;;;;;;24.43;12.00;;;;;;;;;;5085558;28;20226;-62
2024/01/23 11:10:56;;;;;;;5.33;2.97;;;;;;;;;;5087639;28;20291;-59
2024/01/23 11:13:27;;;;;;;6.17;2.03;;;;;;;;;;5087584;28;20206;-60
2024/01/23 11:15:54;;;;;;;9.40;2.37;;;;;;;;;;5101769;28;20201;-60
2024/01/23 11:18:31;;;;;;;7.97;1.97;;;;;;;;;;5107999;28;20205;-59
2024/01/23 11:21:19;;;;;;;5.23;1.57;;;;;;;;;;5107994;28;20209;-59
2024/01/23 11:23:46;;;;;;;2.93;1.47;;;;;;;;;;5064089;28;20583;-59
2024/01/23 11:26:19;;;;;;;6.13;2.05;;;;;;;;;;5087605;28;20641;-60
2024/01/23 11:28:48;;;;;;;9.20;1.63;;;;;;;;;;5083892;28;20222;-60
2024/01/23 11:31:16;;;;;;;3.80;1.30;;;;;;;;;;5086866;28;20213;-59
2024/01/23 11:33:45;;;;;;;5.13;1.20;;;;;;;;;;5086817;28;20218;-60
2024/01/23 11:36:13;;;;;;;4.03;1.17;;;;;;;;;;5087587;28;20217;-60
2024/01/23 11:38:42;;;;;;;9.77;1.63;;;;;;;;;;5083128;28;20213;-60
2024/01/23 11:41:13;;;;;;;4.70;2.03;;;;;;;;;;5087555;28;20263;-60
2024/01/23 11:43:41;;;;;;;9.60;1.90;;;;;;;;;;5087546;28;20209;-60
2024/01/23 11:46:12;;;;;;;4.20;2.27;;;;;;;;;;5087424;28;20579;-60
2024/01/23 11:48:40;;;;;;;10.63;3.37;;;;;;;;;;5087579;28;20454;-59
2024/01/23 11:51:09;;;;;;;9.60;3.00;;;;;;;;;;5087705;28;20221;-59
2024/01/23 11:53:36;;;;;;;6.43;2.37;;;;;;;;;;5084805;28;20289;-59
2024/01/23 11:56:03;;;;;;;9.67;3.23;;;;;;;;;;5067437;28;20218;-60
2024/01/23 11:58:31;;;;;;;5.03;1.63;;;;;;;;;;5066935;28;20229;-60
2024/01/23 12:00:58;;;;;;;8.10;1.77;;;;;;;;;;5067786;28;20302;-60
2024/01/23 12:03:25;;;;;;;5.17;1.93;;;;;;;;;;5071060;28;20264;-61
2024/01/23 12:05:53;;;;;;;8.07;1.87;;;;;;;;;;5070899;28;20677;-60
2024/01/23 12:08:21;;;;;;;15.17;5.13;;;;;;;;;;5071029;28;20227;-60
2024/01/23 12:10:48;;;;;;;10.23;2.27;;;;;;;;;;5071198;28;20270;-59
2024/01/23 12:13:15;;;;;;;13.10;2.20;;;;;;;;;;5071074;28;20215;-59
2024/01/23 12:15:42;;;;;;;6.37;1.73;;;;;;;;;;5070420;28;20214;-59
2024/01/23 12:18:14;;;;;;;7.43;2.20;;;;;;;;;;5075815;28;20194;-59
2024/01/23 12:20:43;;;;;;;7.90;2.07;;;;;;;;;;5088370;28;20431;-60
2024/01/23 12:23:10;;;;;;;12.33;2.33;;;;;;;;;;5088003;28;20302;-59
2024/01/23 12:25:38;;;;;;;10.13;2.33;;;;;;;;;;5086773;28;20207;-60
2024/01/23 12:28:05;;;;;;;11.63;2.10;;;;;;;;;;5085571;28;20202;-61
2024/01/23 12:30:32;;;;;;;7.40;2.03;;;;;;;;;;5090722;28;20240;-58
2024/01/23 12:32:59;;;;;;;7.93;2.00;;;;;;;;;;5090084;28;20320;-59
2024/01/23 12:35:27;;;;;;;7.83;1.97;;;;;;;;;;5090824;28;20812;-58
2024/01/23 12:37:54;;;;;;;8.27;1.73;;;;;;;;;;5090320;28;20210;-59
2024/01/23 12:40:23;;;;;;;11.23;1.70;;;;;;;;;;5089313;28;20203;-59
2024/01/23 12:42:52;;;;;;;8.67;1.87;;;;;;;;;;5086182;28;20214;-60
2024/01/23 12:45:19;;;;;;;5.20;1.20;;;;;;;;;;5069223;28;20211;-60
2024/01/23 12:47:49;;;;;;;5.67;1.60;;;;;;;;;;5078936;28;20209;-59
2024/01/23 12:50:19;;;;;;;3.83;1.60;;;;;;;;;;5082623;28;20230;-59
2024/01/23 12:52:46;;;;;;;8.03;1.60;;;;;;;;;;5084948;28;20294;-59
2024/01/23 12:55:14;;;;;;;10.67;2.10;;;;;;;;;;5073818;28;20592;-59
2024/01/23 12:57:42;;;;;;;3.33;1.10;;;;;;;;;;5085973;28;20770;-59
2024/01/23 13:00:11;;;;;;;7.60;1.60;;;;;;;;;;5089425;28;20240;-59
2024/01/23 13:02:39;;;;;;;9.37;1.83;;;;;;;;;;5087699;28;20216;-59
2024/01/23 13:05:06;;;;;;;7.40;1.50;;;;;;;;;;5089537;28;20222;-59
2024/01/23 13:07:33;;;;;;;5.60;1.87;;;;;;;;;;5089019;28;20198;-59
2024/01/23 13:10:04;;;;;;;9.47;2.10;;;;;;;;;;5088924;28;20578;-59
2024/01/23 13:12:31;;;;;;;6.57;1.63;;;;;;;;;;5074155;28;20305;-59
2024/01/23 13:14:58;;;;;;;6.77;1.73;;;;;;;;;;5089257;28;20237;-60
2024/01/23 13:17:26;;;;;;;6.17;1.37;;;;;;;;;;5088696;28;20206;-63
2024/01/23 13:19:53;;;;;;;4.27;1.27;;;;;;;;;;5087300;28;20202;-59
2024/01/23 13:22:20;;;;;;;9.77;1.77;;;;;;;;;;5089202;28;20671;-60
2024/01/23 13:24:47;;;;;;;4.80;1.27;;;;;;;;;;5089410;28;20224;-60
2024/01/23 13:27:14;;;;;;;6.33;1.40;;;;;;;;;;5087024;28;20656;-59
2024/01/23 13:29:42;;;;;;;9.53;1.90;;;;;;;;;;5088502;28;20237;-59
2024/01/23 13:32:09;;;;;;;9.17;1.90;;;;;;;;;;5079932;28;20211;-60
2024/01/23 13:34:38;;;;;;;6.57;1.60;;;;;;;;;;5088664;28;20571;-60
2024/01/23 13:37:06;;;;;;;7.33;1.70;;;;;;;;;;5088729;28;20214;-59
2024/01/23 13:39:33;;;;;;;5.10;1.30;;;;;;;;;;5087785;28;20210;-60
2024/01/23 13:42:00;;;;;;;14.40;1.97;;;;;;;;;;5088820;28;20202;-60
2024/01/23 13:44:27;;;;;;;7.27;1.53;;;;;;;;;;5089298;28;20871;-60
2024/01/23 13:46:54;;;;;;;6.47;1.47;;;;;;;;;;5088963;28;20198;-60
2024/01/23 13:49:21;;;;;;;11.23;2.13;;;;;;;;;;5082701;28;20324;-60
2024/01/23 13:51:49;;;;;;;8.20;1.80;;;;;;;;;;5088931;28;20206;-60
2024/01/23 13:54:17;;;;;;;6.27;2.10;;;;;;;;;;5089010;28;20293;-60
2024/01/23 13:56:44;;;;;;;6.17;1.53;;;;;;;;;;5088673;28;20213;-60
2024/01/23 13:59:11;;;;;;;9.20;2.00;;;;;;;;;;5088381;28;20225;-60
2024/01/23 14:01:38;;;;;;;6.80;2.07;;;;;;;;;;5088647;28;20207;-60
2024/01/23 14:04:06;;;;;;;6.37;2.07;;;;;;;;;;5087687;28;20530;-60
2024/01/23 14:06:33;;;;;;;11.17;2.47;;;;;;;;;;5076237;28;20202;-63
2024/01/23 14:09:01;;;;;;;5.97;1.67;;;;;;;;;;5087728;28;20700;-61
2024/01/23 14:11:28;;;;;;;10.47;2.33;;;;;;;;;;5088966;28;20596;-60
2024/01/23 14:13:55;;;;;;;14.07;2.40;;;;;;;;;;5084536;28;20773;-61
2024/01/23 14:16:22;;;;;;;6.30;2.07;;;;;;;;;;5088198;28;20206;-61
2024/01/23 14:18:49;;;;;;;7.77;1.70;;;;;;;;;;5087690;28;20202;-61
2024/01/23 14:21:16;;;;;;;13.93;2.87;;;;;;;;;;5087319;28;20198;-61
2024/01/23 14:23:43;;;;;;;5.00;1.97;;;;;;;;;;5075277;28;20602;-60
2024/01/23 14:26:12;;;;;;;7.83;3.13;;;;;;;;;;5086199;28;20211;-60
2024/01/23 14:28:39;;;;;;;6.87;2.13;;;;;;;;;;5087812;28;20210;-61
2024/01/23 14:31:06;;;;;;;10.83;2.30;;;;;;;;;;5086919;28;20235;-61
2024/01/23 14:33:33;;;;;;;7.00;2.50;;;;;;;;;;5082671;28;20203;-62
2024/01/23 14:36:02;;;;;;;9.13;2.30;;;;;;;;;;5086640;28;20648;-61
2024/01/23 14:38:29;;;;;;;7.97;1.83;;;;;;;;;;5088377;28;20198;-61
2024/01/23 14:40:56;;;;;;;10.80;2.07;;;;;;;;;;5085887;28;20562;-60
2024/01/23 14:43:24;;;;;;;4.90;1.77;;;;;;;;;;5087255;28;20202;-61